Time;durP1;ratioP1;P1;durP2;ratioP2;P2;SDS_P1;SDS_P2;PMS_P1;PMS_P2;Temp;Humidity;BMP_temperature;BMP_pressure;BME280_temperature;BME280_humidity;BME280_pressure;Samples;Min_cycle;Max_cycle;Signal;HPM_P1;HPM_P2
2023/01/18 00:02:29;;;;;;;8.40;3.00;;;;;;;2.67;100.00;97570.03;5131586;27;20043;-85
2023/01/18 00:05:10;;;;;;;11.13;2.42;;;;;;;2.63;100.00;97579.72;5121057;28;20051;-87
2023/01/18 00:07:39;;;;;;;17.88;3.42;;;;;;;2.50;100.00;97559.81;5129759;27;20050;-86
2023/01/18 00:10:08;;;;;;;13.65;2.70;;;;;;;2.40;100.00;97539.66;5124860;28;20044;-85
2023/01/18 00:12:49;;;;;;;11.98;2.80;;;;;;;2.51;100.00;97572.63;5130302;27;20051;-85
2023/01/18 00:15:25;;;;;;;14.45;3.58;;;;;;;2.57;100.00;97566.31;5124763;28;20119;-87
2023/01/18 00:18:06;;;;;;;9.90;2.55;;;;;;;2.35;100.00;97530.50;5129297;27;20536;-85
2023/01/18 00:20:46;;;;;;;10.85;2.83;;;;;;;2.25;100.00;97537.94;5134201;27;20110;-86
2023/01/18 00:23:27;;;;;;;19.40;4.20;;;;;;;2.68;100.00;97594.97;5133420;27;20058;-84
2023/01/18 00:26:10;;;;;;;16.67;4.43;;;;;;;2.49;100.00;97615.78;5137382;27;20063;-86
2023/01/18 00:28:51;;;;;;;16.83;3.70;;;;;;;2.19;100.00;97533.94;5136560;27;20054;-85
2023/01/18 00:31:32;;;;;;;15.00;3.90;;;;;;;2.35;100.00;97538.25;5148658;27;20142;-86
2023/01/18 00:34:12;;;;;;;14.10;3.70;;;;;;;2.39;100.00;97557.81;5127865;28;20047;-87
2023/01/18 00:36:53;;;;;;;17.95;3.67;;;;;;;2.78;100.00;97611.63;5119481;27;20055;-85
2023/01/18 00:39:34;;;;;;;16.70;4.45;;;;;;;2.92;100.00;97634.13;5128629;28;20102;-84
2023/01/18 00:45:14;;;;;;;11.07;3.20;;;;;;;2.79;100.00;97626.19;5143350;27;20059;-88
2023/01/18 00:47:55;;;;;;;26.25;4.47;;;;;;;2.96;100.00;97637.34;5139544;27;20107;-86
2023/01/18 00:50:35;;;;;;;19.33;3.35;;;;;;;2.80;100.00;97645.13;5143084;27;20139;-87
2023/01/18 00:53:16;;;;;;;15.70;3.30;;;;;;;2.86;100.00;97668.03;5125366;28;20054;-85
2023/01/18 00:55:56;;;;;;;9.32;2.80;;;;;;;2.41;100.00;97595.56;5124748;27;20047;-87
2023/01/18 00:58:33;;;;;;;18.30;3.50;;;;;;;2.49;100.00;97608.03;5130474;27;20078;-86
2023/01/18 01:01:08;;;;;;;30.33;4.25;;;;;;;2.58;100.00;97611.88;5129752;27;20047;-86
2023/01/18 01:06:45;;;;;;;13.50;2.50;;;;;;;2.62;100.00;97619.38;5145142;27;20047;-86
2023/01/18 01:09:20;;;;;;;15.48;3.20;;;;;;;2.83;100.00;97666.47;5116706;27;20054;-86
2023/01/18 01:26:07;;;;;;;15.60;3.97;;;;;;;2.94;100.00;97738.22;5131308;27;20927;-86
2023/01/18 01:28:42;;;;;;;12.95;3.15;;;;;;;2.65;100.00;97726.88;5121443;28;20102;-84
2023/01/18 01:31:12;;;;;;;7.80;2.33;;;;;;;2.73;100.00;97758.31;5120917;28;20058;-85
2023/01/18 01:33:39;;;;;;;16.35;4.10;;;;;;;2.57;100.00;97724.72;5107181;28;20049;-83
2023/01/18 01:36:11;;;;;;;13.80;2.58;;;;;;;2.78;100.00;97771.81;5122344;28;20439;-84
2023/01/18 01:38:42;;;;;;;11.95;2.78;;;;;;;2.76;100.00;97794.31;5121556;28;20055;-85
2023/01/18 01:41:19;;;;;;;12.48;2.92;;;;;;;2.58;100.00;97744.44;5120915;28;20070;-83
2023/01/18 01:43:49;;;;;;;17.30;3.35;;;;;;;2.80;100.00;97800.16;5122880;28;20047;-84
2023/01/18 01:46:40;;;;;;;13.90;2.38;;;;;;;2.76;100.00;97807.25;5131086;28;20040;-85
2023/01/18 01:49:31;;;;;;;13.77;2.28;;;;;;;2.58;100.00;97759.94;5122045;28;20040;-84
2023/01/18 01:52:06;;;;;;;12.43;2.38;;;;;;;2.90;100.00;97822.00;5107838;28;20066;-84
2023/01/18 01:54:36;;;;;;;12.60;2.70;;;;;;;2.90;100.00;97834.91;5112939;28;20048;-84
2023/01/18 01:57:11;;;;;;;14.07;2.33;;;;;;;2.68;100.00;97793.88;5104800;28;20054;-84
2023/01/18 01:59:59;;;;;;;7.55;2.25;;;;;;;2.68;100.00;97793.88;5137479;28;20103;-84
2023/01/18 02:02:29;;;;;;;14.93;3.88;;;;;;;2.83;100.00;97834.44;5098559;28;20054;-83
2023/01/18 02:04:58;;;;;;;17.38;5.10;;;;;;;2.56;100.00;97797.94;5114457;28;20465;-84
2023/01/18 02:07:25;;;;;;;9.50;1.83;;;;;;;2.68;100.00;97847.31;5117624;28;20066;-84
2023/01/18 02:09:52;;;;;;;8.40;2.08;;;;;;;2.64;100.00;97834.53;5125484;28;20409;-87
2023/01/18 02:12:19;;;;;;;8.13;1.85;;;;;;;2.47;100.00;97837.16;5112688;28;20135;-85
2023/01/18 02:14:46;;;;;;;11.20;2.20;;;;;;;2.48;100.00;97838.84;5115565;28;20065;-85
2023/01/18 02:17:16;;;;;;;11.98;2.15;;;;;;;2.77;100.00;97888.16;5120834;28;20039;-84
2023/01/18 02:20:05;;;;;;;6.57;1.98;;;;;;;2.57;100.00;97865.94;5113089;28;20042;-85
2023/01/18 02:22:44;;;;;;;9.00;1.85;;;;;;;2.74;100.00;97898.66;5122358;28;20066;-85
2023/01/18 02:25:39;;;;;;;8.20;1.70;;;;;;;2.52;100.00;97875.69;5106363;28;20054;-85
2023/01/18 02:28:19;;;;;;;13.05;2.20;;;;;;;2.49;100.00;97866.31;5137643;28;20039;-84
2023/01/18 02:30:55;;;;;;;7.50;1.80;;;;;;;2.92;100.00;97909.78;5123545;27;20047;-83
2023/01/18 02:33:33;;;;;;;9.23;2.42;;;;;;;2.84;100.00;97926.53;5124232;27;20046;-85
2023/01/18 02:36:02;;;;;;;14.43;1.88;;;;;;;2.90;100.00;97914.22;5123437;27;20043;-82
2023/01/18 02:38:38;;;;;;;4.45;1.48;;;;;;;2.56;100.00;97903.84;5124136;27;20040;-84
2023/01/18 02:41:16;;;;;;;4.82;1.50;;;;;;;2.81;100.00;97936.19;5121870;27;20055;-85
2023/01/18 02:46:34;;;;;;;5.18;1.50;;;;;;;2.50;100.00;97913.63;5130543;27;20043;-85
2023/01/18 02:49:11;;;;;;;11.48;2.15;;;;;;;2.51;100.00;97910.16;5126455;27;20039;-84
2023/01/18 02:51:38;;;;;;;9.05;1.70;;;;;;;2.50;100.00;97903.31;5118202;28;20051;-84
2023/01/18 02:54:08;;;;;;;5.03;1.90;;;;;;;2.61;100.00;97938.03;5132976;27;20051;-83
2023/01/18 02:56:51;;;;;;;7.40;1.60;;;;;;;2.48;100.00;97939.56;5137722;27;20050;-84
2023/01/18 02:59:51;;;;;;;9.00;1.75;;;;;;;2.65;100.00;97947.28;5137961;27;20050;-83
2023/01/18 03:02:21;;;;;;;10.98;2.00;;;;;;;2.77;100.00;97987.19;5122982;27;20055;-83
2023/01/18 03:04:53;;;;;;;5.32;1.70;;;;;;;2.76;100.00;97976.91;5120675;27;20457;-85
2023/01/18 03:07:28;;;;;;;7.45;2.13;;;;;;;2.49;100.00;97948.13;5137793;27;20045;-84
2023/01/18 03:09:57;;;;;;;6.40;1.80;;;;;;;2.42;100.00;97929.53;5115048;28;20050;-84
2023/01/18 03:12:23;;;;;;;6.70;1.70;;;;;;;2.99;100.00;97994.72;5129761;27;20058;-84
2023/01/18 03:15:29;;;;;;;9.40;2.20;;;;;;;2.84;100.00;97990.31;5120607;27;20378;-84
2023/01/18 03:18:04;;;;;;;6.88;2.05;;;;;;;2.74;100.00;97977.00;5043940;28;20128;-84
2023/01/18 03:20:36;;;;;;;10.50;2.40;;;;;;;2.68;100.00;97942.91;5058223;28;20055;-83
2023/01/18 03:23:39;;;;;;;13.60;2.60;;;;;;;2.76;100.00;97967.44;5084031;27;20058;-84
2023/01/18 03:26:09;;;;;;;17.50;3.65;;;;;;;2.67;100.00;97947.22;5121895;27;20400;-85
2023/01/18 03:34:52;;;;;;;7.38;1.98;;;;;;;2.90;100.00;98002.91;5134552;27;20051;-85
2023/01/18 03:37:29;;;;;;;12.27;2.22;;;;;;;2.87;100.00;98010.84;5119226;27;20046;-85
2023/01/18 03:40:01;;;;;;;8.90;1.83;;;;;;;2.67;100.00;98011.81;5118861;28;20054;-85
2023/01/18 03:42:36;;;;;;;7.45;1.67;;;;;;;2.44;100.00;97975.03;5138370;27;20399;-83
2023/01/18 03:45:16;;;;;;;8.55;1.85;;;;;;;2.29;100.00;97944.78;5119064;27;20054;-85
2023/01/18 03:47:43;;;;;;;5.63;1.60;;;;;;;2.13;100.00;97925.78;5116096;27;20051;-84
2023/01/18 03:50:10;;;;;;;5.53;1.73;;;;;;;2.50;100.00;97973.91;5121178;27;20051;-84
2023/01/18 03:52:49;;;;;;;7.30;1.60;;;;;;;2.70;100.00;97996.16;5140794;27;20043;-84
2023/01/18 03:55:39;;;;;;;8.15;2.05;;;;;;;2.69;100.00;98016.91;5140299;27;20051;-85
2023/01/18 03:58:11;;;;;;;8.35;1.67;;;;;;;2.43;100.00;98008.69;5122703;27;20484;-85
2023/01/18 04:00:39;;;;;;;4.72;1.40;;;;;;;2.47;100.00;98039.44;5139215;27;20051;-85
2023/01/18 04:03:07;;;;;;;3.70;1.40;;;;;;;2.11;100.00;98013.63;5127482;27;20375;-85
2023/01/18 04:05:34;;;;;;;7.47;1.48;;;;;;;2.15;100.00;98014.31;5142970;27;20043;-85
2023/01/18 04:08:01;;;;;;;4.05;1.35;;;;;;;2.30;100.00;98056.63;5121614;27;20058;-85
2023/01/18 04:10:28;;;;;;;5.35;1.38;;;;;;;1.68;100.00;97989.78;5142013;27;20051;-85
2023/01/18 04:12:55;;;;;;;7.18;1.67;;;;;;;2.23;100.00;98058.66;5123402;28;20047;-85
2023/01/18 04:15:22;;;;;;;4.63;1.10;;;;;;;1.90;100.00;98028.34;5138342;27;20103;-85
2023/01/18 04:17:52;;;;;;;3.17;1.15;;;;;;;1.83;100.00;98007.16;5119943;27;20043;-86
2023/01/18 04:20:19;;;;;;;5.40;1.60;;;;;;;1.87;100.00;98026.72;5117420;27;20039;-84
2023/01/18 04:22:51;;;;;;;4.80;1.60;;;;;;;2.17;100.00;98072.69;5139347;27;21150;-84
2023/01/18 04:25:18;;;;;;;4.50;1.50;;;;;;;2.06;100.00;98095.59;5122594;27;20055;-85
2023/01/18 04:27:45;;;;;;;4.57;1.50;;;;;;;2.15;100.00;98104.66;5136716;27;20050;-85
2023/01/18 04:30:12;;;;;;;4.10;1.40;;;;;;;2.05;100.00;98123.16;5122548;27;20484;-85
2023/01/18 04:32:44;;;;;;;6.40;1.52;;;;;;;1.70;100.00;98078.28;5117312;27;20070;-85
2023/01/18 04:35:12;;;;;;;4.95;1.60;;;;;;;1.69;100.00;98135.91;5140810;27;20054;-85
2023/01/18 04:37:39;;;;;;;3.97;1.38;;;;;;;1.36;100.00;98089.19;5120277;27;20090;-86
2023/01/18 04:40:07;;;;;;;6.10;1.40;;;;;;;1.63;100.00;98100.91;5122394;27;20042;-85
2023/01/18 04:42:34;;;;;;;8.20;2.25;;;;;;;1.67;100.00;98120.50;5120157;27;20035;-85
2023/01/18 04:45:01;;;;;;;5.32;1.63;;;;;;;1.56;100.00;98107.25;5124241;27;20047;-85
2023/01/18 04:47:28;;;;;;;6.03;1.65;;;;;;;1.93;100.00;98134.03;5131207;27;20047;-84
2023/01/18 04:49:56;;;;;;;5.45;1.50;;;;;;;1.95;100.00;98106.41;5111940;27;20047;-84
2023/01/18 04:52:25;;;;;;;6.82;2.05;;;;;;;1.78;100.00;98090.81;5130206;27;20057;-85
2023/01/18 04:54:52;;;;;;;7.38;1.50;;;;;;;1.78;100.00;98062.44;5118675;27;20094;-84
2023/01/18 04:57:19;;;;;;;5.20;1.80;;;;;;;1.76;100.00;98085.72;5126604;27;20090;-84
2023/01/18 04:59:46;;;;;;;12.18;1.77;;;;;;;1.93;100.00;98105.63;5127126;27;20472;-84
2023/01/18 05:02:14;;;;;;;6.05;1.55;;;;;;;1.81;100.00;98060.56;5135320;27;20049;-84
2023/01/18 05:04:42;;;;;;;4.60;1.50;;;;;;;2.13;100.00;98127.97;5131960;27;20055;-85
2023/01/18 05:07:10;;;;;;;5.35;1.40;;;;;;;2.05;100.00;98105.09;5115922;27;20433;-84
2023/01/18 05:09:36;;;;;;;3.65;1.70;;;;;;;1.98;100.00;98077.84;5126406;27;20397;-84
2023/01/18 05:12:03;;;;;;;4.13;1.45;;;;;;;2.10;100.00;98104.84;5126643;27;20086;-84
2023/01/18 05:14:30;;;;;;;12.63;2.28;;;;;;;1.66;100.00;98061.22;5132742;27;20054;-84
2023/01/18 05:16:57;;;;;;;9.05;2.15;;;;;;;1.87;100.00;98105.88;5112126;27;20498;-83
2023/01/18 05:19:28;;;;;;;5.05;1.55;;;;;;;1.60;100.00;98054.59;5104277;28;20097;-84
2023/01/18 05:21:55;;;;;;;6.72;1.67;;;;;;;2.08;100.00;98135.06;5111262;27;20173;-84
2023/01/18 05:24:22;;;;;;;11.23;2.30;;;;;;;1.85;100.00;98100.78;5116169;27;20046;-83
2023/01/18 05:26:49;;;;;;;12.70;3.17;;;;;;;1.88;100.00;98125.63;5115263;27;20039;-83
2023/01/18 05:29:16;;;;;;;8.25;1.73;;;;;;;1.76;100.00;98090.06;5103627;28;20093;-84
2023/01/18 05:31:43;;;;;;;7.93;1.85;;;;;;;1.86;100.00;98153.22;5115087;28;20066;-83
2023/01/18 05:34:10;;;;;;;11.40;2.22;;;;;;;2.00;100.00;98156.06;5131629;27;20044;-83
2023/01/18 05:36:37;;;;;;;9.48;2.30;;;;;;;1.81;100.00;98150.88;5115835;28;20043;-84
2023/01/18 05:39:04;;;;;;;9.63;2.42;;;;;;;1.58;100.00;98105.44;5134681;28;20111;-84
2023/01/18 05:41:30;;;;;;;5.68;1.83;;;;;;;1.81;100.00;98143.13;5116364;28;20051;-84
2023/01/18 05:43:57;;;;;;;12.27;2.35;;;;;;;1.83;100.00;98149.06;5134771;28;20039;-83
2023/01/18 05:46:24;;;;;;;8.85;2.15;;;;;;;1.70;100.00;98133.28;5115897;28;20403;-84
2023/01/18 05:48:55;;;;;;;14.65;2.47;;;;;;;1.63;100.00;98118.97;5116085;28;20160;-83
2023/01/18 05:51:22;;;;;;;9.57;2.13;;;;;;;1.80;100.00;98169.00;5119817;28;20044;-83
2023/01/18 05:53:49;;;;;;;14.77;2.40;;;;;;;2.14;100.00;98201.91;5116397;28;20051;-84
2023/01/18 05:56:16;;;;;;;12.38;2.10;;;;;;;1.68;100.00;98142.81;5115741;28;20075;-84
2023/01/18 05:58:43;;;;;;;13.10;4.47;;;;;;;1.67;100.00;98125.66;5116259;28;20050;-84
2023/01/18 06:01:10;;;;;;;12.13;2.75;;;;;;;1.82;100.00;98165.44;5116767;28;20054;-84
2023/01/18 06:03:37;;;;;;;13.10;2.22;;;;;;;1.45;100.00;98167.00;5118141;28;20078;-85
2023/01/18 06:06:03;;;;;;;9.70;2.40;;;;;;;1.70;100.00;98181.47;5146257;27;20038;-84
2023/01/18 06:08:30;;;;;;;8.23;2.25;;;;;;;1.82;100.00;98196.38;5116271;27;20052;-84
2023/01/18 06:10:58;;;;;;;10.38;2.10;;;;;;;1.93;100.00;98211.44;5124452;27;20054;-84
2023/01/18 06:13:27;;;;;;;9.27;2.67;;;;;;;1.83;100.00;98204.97;5119186;27;20528;-83
2023/01/18 06:15:55;;;;;;;9.18;2.03;;;;;;;1.64;100.00;98173.97;5120149;27;20047;-83
2023/01/18 06:18:23;;;;;;;9.55;2.53;;;;;;;2.02;100.00;98243.72;5118543;27;20047;-83
2023/01/18 06:20:57;;;;;;;14.65;2.70;;;;;;;1.71;100.00;98202.00;5136775;27;20051;-84
2023/01/18 06:23:27;;;;;;;9.50;2.17;;;;;;;2.17;100.00;98262.91;5119953;27;20085;-83
2023/01/18 06:25:54;;;;;;;9.40;2.03;;;;;;;1.90;100.00;98221.88;5113086;28;20054;-84
2023/01/18 06:28:24;;;;;;;9.20;2.05;;;;;;;1.61;100.00;98182.69;5116683;27;20069;-83
2023/01/18 06:30:53;;;;;;;6.32;1.80;;;;;;;2.08;100.00;98258.97;5116501;27;20640;-83
2023/01/18 06:33:22;;;;;;;7.22;1.85;;;;;;;1.82;100.00;98218.78;5134917;27;20047;-83
2023/01/18 06:35:48;;;;;;;8.23;2.65;;;;;;;1.88;100.00;98240.00;5126145;27;20059;-83
2023/01/18 06:38:15;;;;;;;8.13;2.08;;;;;;;1.89;100.00;98226.22;5139735;27;20039;-84
2023/01/18 06:40:42;;;;;;;6.53;2.13;;;;;;;1.68;100.00;98217.63;5122985;27;20047;-84
2023/01/18 06:43:12;;;;;;;10.45;2.40;;;;;;;2.14;100.00;98291.44;5119350;27;20468;-85
2023/01/18 06:45:40;;;;;;;14.80;2.63;;;;;;;1.79;100.00;98221.47;5135893;27;20134;-85
2023/01/18 06:48:07;;;;;;;11.45;2.10;;;;;;;1.96;100.00;98264.66;5114964;27;20043;-84
2023/01/18 06:50:34;;;;;;;15.00;3.13;;;;;;;1.88;100.00;98226.28;5121865;27;20047;-84
2023/01/18 06:53:01;;;;;;;7.65;2.63;;;;;;;2.27;100.00;98290.00;5117707;27;20058;-82
2023/01/18 06:55:27;;;;;;;8.23;1.80;;;;;;;2.00;100.00;98242.97;5117886;27;20464;-86
2023/01/18 06:57:55;;;;;;;12.32;2.05;;;;;;;1.76;100.00;98224.22;5114527;27;20050;-84
2023/01/18 07:00:23;;;;;;;11.88;2.60;;;;;;;2.03;100.00;98290.13;5121606;27;20043;-84
2023/01/18 07:02:52;;;;;;;7.88;2.05;;;;;;;2.33;100.00;98312.97;5123615;27;20057;-85
2023/01/18 07:05:19;;;;;;;10.43;1.75;;;;;;;2.08;100.00;98301.09;5124727;28;20052;-85
2023/01/18 07:07:47;;;;;;;8.73;2.05;;;;;;;1.93;100.00;98293.16;5124394;27;20047;-85
2023/01/18 07:10:14;;;;;;;15.05;2.03;;;;;;;2.20;100.00;98320.41;5130115;27;20077;-85
2023/01/18 07:12:45;;;;;;;11.40;2.42;;;;;;;1.94;100.00;98280.19;5122111;27;20050;-84
2023/01/18 07:15:13;;;;;;;11.57;2.08;;;;;;;1.71;100.00;98269.06;5132235;27;20051;-86
2023/01/18 07:17:49;;;;;;;7.25;2.20;;;;;;;1.78;100.00;98284.31;5117823;27;20054;-85
2023/01/18 07:20:17;;;;;;;9.15;2.30;;;;;;;1.60;100.00;98273.84;5132123;27;20047;-85
2023/01/18 07:22:44;;;;;;;13.45;2.35;;;;;;;1.88;100.00;98320.00;5115025;27;20412;-83
2023/01/18 07:25:12;;;;;;;9.52;2.33;;;;;;;1.94;100.00;98320.66;5112384;28;20511;-83
2023/01/18 07:27:42;;;;;;;11.43;2.70;;;;;;;1.97;100.00;98341.19;5118614;27;20083;-84
2023/01/18 07:30:12;;;;;;;6.47;2.10;;;;;;;1.78;100.00;98316.13;5135249;27;20049;-85
2023/01/18 07:32:39;;;;;;;6.32;1.90;;;;;;;1.71;100.00;98317.25;5124075;27;20053;-83
2023/01/18 07:35:06;;;;;;;16.05;3.25;;;;;;;1.52;100.00;98319.72;5111933;27;20050;-84
2023/01/18 07:37:34;;;;;;;7.05;1.92;;;;;;;1.95;100.00;98386.84;5136106;27;20396;-84
2023/01/18 07:40:02;;;;;;;9.18;2.30;;;;;;;1.67;100.00;98346.66;5121233;27;20182;-84
2023/01/18 07:42:29;;;;;;;5.80;1.63;;;;;;;1.85;100.00;98394.13;5135579;27;20050;-85
2023/01/18 07:44:55;;;;;;;9.48;2.10;;;;;;;1.81;100.00;98395.97;5116253;27;20053;-84
2023/01/18 07:47:22;;;;;;;9.27;2.75;;;;;;;1.64;100.00;98352.78;5114797;28;20047;-85
2023/01/18 07:49:49;;;;;;;13.40;2.10;;;;;;;1.67;100.00;98359.56;5113692;27;20094;-82
2023/01/18 07:52:16;;;;;;;10.15;2.55;;;;;;;1.39;100.00;98347.75;5129256;27;20048;-85
2023/01/18 07:54:42;;;;;;;10.10;1.90;;;;;;;1.48;100.00;98343.97;5118498;27;20526;-85
2023/01/18 07:57:09;;;;;;;12.65;2.17;;;;;;;1.65;100.00;98388.00;5110813;28;20381;-84
2023/01/18 07:59:38;;;;;;;7.20;1.85;;;;;;;1.59;100.00;98351.28;5107374;28;20477;-85
2023/01/18 08:02:07;;;;;;;8.02;1.90;;;;;;;1.66;100.00;98373.34;5112199;28;20044;-85
2023/01/18 08:04:34;;;;;;;8.13;1.73;;;;;;;1.34;100.00;98352.22;5110037;27;20062;-85
2023/01/18 08:07:01;;;;;;;10.88;1.90;;;;;;;1.38;100.00;98366.69;5116054;27;20047;-85
2023/01/18 08:09:27;;;;;;;9.45;1.95;;;;;;;1.59;100.00;98384.81;5114076;28;20036;-84
2023/01/18 08:11:55;;;;;;;6.65;1.70;;;;;;;1.87;100.00;98431.03;5130227;27;20043;-85
2023/01/18 08:14:21;;;;;;;8.45;3.90;;;;;;;1.58;100.00;98385.72;5134974;27;20518;-84
2023/01/18 08:16:48;;;;;;;12.02;1.95;;;;;;;1.66;100.00;98402.56;5116299;27;20050;-84
2023/01/18 08:19:16;;;;;;;7.68;1.85;;;;;;;1.57;100.00;98391.78;5134929;27;20057;-84
2023/01/18 08:21:44;;;;;;;6.53;1.70;;;;;;;1.81;100.00;98421.78;5135153;27;20054;-84
2023/01/18 08:24:12;;;;;;;8.23;2.10;;;;;;;1.66;100.00;98394.00;5114310;27;20062;-84
2023/01/18 08:26:39;;;;;;;7.72;1.95;;;;;;;1.45;100.00;98375.03;5128013;27;20464;-85
2023/01/18 08:29:06;;;;;;;13.55;2.10;;;;;;;1.85;100.00;98435.41;5116214;27;20050;-85
2023/01/18 08:31:32;;;;;;;8.68;2.28;;;;;;;1.70;100.00;98401.56;5112943;28;20052;-84
2023/01/18 08:34:01;;;;;;;8.15;2.08;;;;;;;1.64;100.00;98404.38;5114754;27;20130;-84
2023/01/18 08:36:27;;;;;;;6.57;2.15;;;;;;;1.65;100.00;98408.63;5115566;27;20502;-85
2023/01/18 08:38:58;;;;;;;10.65;2.10;;;;;;;2.05;100.00;98470.75;5111185;27;20050;-83
2023/01/18 08:41:29;;;;;;;10.50;2.05;;;;;;;1.73;100.00;98423.81;5125518;27;20058;-85
2023/01/18 08:43:58;;;;;;;7.25;2.03;;;;;;;1.90;100.00;98443.81;5125582;27;20047;-84
2023/01/18 08:46:24;;;;;;;9.65;2.55;;;;;;;1.75;100.00;98440.06;5115246;27;20042;-85
2023/01/18 08:48:53;;;;;;;10.25;2.05;;;;;;;2.00;100.00;98476.13;5118734;27;20092;-84
2023/01/18 08:51:21;;;;;;;7.25;2.25;;;;;;;1.81;100.00;98428.69;5117774;27;20058;-84
2023/01/18 08:53:55;;;;;;;5.60;1.63;;;;;;;2.33;100.00;98498.91;5117570;27;20127;-85
2023/01/18 08:56:23;;;;;;;7.97;1.88;;;;;;;2.24;100.00;98496.69;5127674;27;20171;-87
2023/01/18 08:58:50;;;;;;;7.50;1.70;;;;;;;1.93;100.00;98466.94;5119674;28;20058;-86
2023/01/18 09:01:24;;;;;;;7.28;2.25;;;;;;;1.74;100.00;98412.59;5122024;28;20472;-84
2023/01/18 09:03:55;;;;;;;9.05;1.98;;;;;;;2.13;100.00;98520.34;5133672;27;20100;-86
2023/01/18 09:06:22;;;;;;;12.23;5.00;;;;;;;1.86;100.00;98474.06;5128939;27;20142;-84
2023/01/18 09:09:04;;;;;;;8.73;2.05;;;;;;;2.08;100.00;98533.44;5106978;28;20107;-86
2023/01/18 09:11:31;;;;;;;6.15;2.53;;;;;;;2.00;100.00;98507.09;5114363;27;20047;-86
2023/01/18 09:13:58;;;;;;;8.95;1.92;;;;;;;1.87;100.00;98492.97;5135018;27;20055;-86
2023/01/18 09:16:28;;;;;;;5.60;1.77;;;;;;;1.87;100.00;98496.38;5108047;27;20051;-86
2023/01/18 09:18:56;;;;;;;7.82;1.70;;;;;;;2.16;100.00;98529.72;5117359;27;20051;-86
2023/01/18 09:21:23;;;;;;;4.57;1.65;;;;;;;1.94;100.00;98515.06;5118655;27;20043;-84
2023/01/18 09:23:50;;;;;;;6.28;1.65;;;;;;;1.98;100.00;98515.78;5118672;27;20047;-85
2023/01/18 09:26:19;;;;;;;3.60;1.33;;;;;;;2.43;100.00;98562.22;5105757;27;20047;-86
2023/01/18 09:28:49;;;;;;;4.72;1.67;;;;;;;2.25;100.00;98555.19;5115657;28;20056;-86
2023/01/18 09:31:18;;;;;;;9.23;1.73;;;;;;;2.41;100.00;98565.78;5119322;27;20047;-87
2023/01/18 09:33:45;;;;;;;9.30;2.00;;;;;;;2.30;100.00;98555.00;5111553;28;20052;-85
2023/01/18 09:36:22;;;;;;;4.45;1.70;;;;;;;2.20;100.00;98552.78;5135120;27;20047;-86
2023/01/18 09:38:49;;;;;;;9.88;1.70;;;;;;;2.23;100.00;98567.31;5138921;27;20129;-87
2023/01/18 09:41:43;;;;;;;8.00;1.60;;;;;;;2.36;100.00;98581.44;5116399;28;20075;-85
2023/01/18 09:44:27;;;;;;;4.88;1.60;;;;;;;2.22;100.00;98540.66;5116102;28;20405;-87
2023/01/18 09:47:00;;;;;;;9.27;1.92;;;;;;;2.25;100.00;98586.19;5116640;28;20039;-86
2023/01/18 09:49:39;;;;;;;;;;;;;;;2.51;100.00;98625.66;5135447;28;20050;-86
2023/01/18 09:52:25;;;;;;;5.47;1.70;;;;;;;2.61;100.00;98625.25;5115163;28;19992;-85
2023/01/18 09:55:32;;;;;;;8.52;1.90;;;;;;;2.51;100.00;98633.41;5123220;28;20048;-88
2023/01/18 09:58:25;;;;;;;6.97;1.90;;;;;;;2.69;100.00;98639.59;5117308;28;20086;-87
2023/01/18 10:01:00;;;;;;;4.70;1.55;;;;;;;2.32;100.00;98574.72;5132194;28;20043;-85
2023/01/18 10:03:56;;;;;;;7.97;1.60;;;;;;;2.83;100.00;98645.94;5124005;28;20148;-87
2023/01/18 10:06:46;;;;;;;5.00;1.40;;;;;;;2.78;100.00;98645.28;5082800;28;20047;-86
2023/01/18 10:09:16;;;;;;;6.40;1.55;;;;;;;2.39;100.00;98590.78;5126403;28;20047;-86
2023/01/18 10:11:58;;;;;;;5.07;1.65;;;;;;;2.86;100.00;98665.63;5120332;28;20100;-86
2023/01/18 10:14:53;;;;;;;10.32;2.40;;;;;;;2.51;100.00;98641.16;5120771;28;20391;-87
2023/01/18 10:17:24;;;;;;;9.02;2.00;;;;;;;2.77;100.00;98676.34;5121212;28;20058;-86
2023/01/18 10:19:51;;;;;;;10.07;2.10;;;;;;;2.80;100.00;98708.06;5127097;28;20396;-86
2023/01/18 10:22:28;;;;;;;10.65;2.17;;;;;;;2.61;100.00;98658.00;5119121;28;20051;-86
2023/01/18 10:24:59;;;;;;;12.45;3.15;;;;;;;2.74;100.00;98695.38;5120558;28;20404;-86
2023/01/18 10:27:47;;;;;;;6.70;1.70;;;;;;;2.91;100.00;98723.16;5117861;28;20051;-85
2023/01/18 10:30:47;;;;;;;10.63;1.90;;;;;;;2.54;100.00;98667.72;5104515;28;20048;-84
2023/01/18 10:33:19;;;;;;;6.05;1.73;;;;;;;2.82;100.00;98726.13;5101480;28;20039;-85
2023/01/18 10:35:50;;;;;;;7.65;1.83;;;;;;;2.75;100.00;98737.59;5115502;28;20047;-85
2023/01/18 10:38:21;;;;;;;7.78;1.85;;;;;;;2.57;100.00;98746.88;5134666;28;20134;-85
2023/01/18 10:40:56;;;;;;;9.88;2.28;;;;;;;2.16;100.00;98693.22;5116588;28;20063;-85
2023/01/18 10:43:25;;;;;;;7.10;2.15;;;;;;;2.51;100.00;98776.31;5106988;28;20050;-85
2023/01/18 10:45:53;;;;;;;4.43;1.77;;;;;;;1.99;100.00;98740.28;5109202;28;20047;-85
2023/01/18 10:48:20;;;;;;;8.43;2.10;;;;;;;2.05;100.00;98776.22;5115329;28;20055;-84
2023/01/18 10:50:51;;;;;;;6.20;2.17;;;;;;;1.89;100.00;98757.84;5125104;28;20047;-85
2023/01/18 10:53:35;;;;;;;9.07;2.60;;;;;;;2.08;100.00;98786.41;5119222;27;20484;-84
2023/01/18 10:56:04;;;;;;;10.10;3.47;;;;;;;1.81;100.00;98717.69;5108445;28;20459;-85
2023/01/18 10:58:45;;;;;;;11.45;3.25;;;;;;;1.95;100.00;98750.75;5119575;27;20058;-84
2023/01/18 11:01:21;;;;;;;10.07;3.30;;;;;;;2.18;100.00;98780.94;5108246;28;20054;-85
2023/01/18 11:03:54;;;;;;;7.50;2.50;;;;;;;2.10;100.00;98757.97;5131775;27;20457;-84
2023/01/18 11:06:23;;;;;;;8.48;2.35;;;;;;;2.37;100.00;98797.47;5118765;27;20134;-85
2023/01/18 11:08:50;;;;;;;6.07;1.75;;;;;;;2.26;100.00;98782.34;5133057;27;20051;-84
2023/01/18 11:14:24;;;;;;;15.07;2.72;;;;;;;2.28;100.00;98802.97;5124702;27;20400;-85
2023/01/18 11:16:59;;;;;;;8.20;2.78;;;;;;;2.30;100.00;98774.50;5128875;27;20532;-85
2023/01/18 11:19:26;;;;;;;12.88;2.65;;;;;;;2.03;100.00;98746.19;5119355;27;20047;-86
2023/01/18 11:21:54;;;;;;;13.60;2.67;;;;;;;2.17;100.00;98753.44;5119381;27;20053;-85
2023/01/18 11:24:30;;;;;;;12.15;2.53;;;;;;;2.09;100.00;98756.31;5119196;27;20377;-85
2023/01/18 11:27:09;;;;;;;8.63;2.50;;;;;;;2.46;100.00;98829.88;5117814;27;20039;-85
2023/01/18 11:29:42;;;;;;;16.33;4.40;;;;;;;2.03;100.00;98783.16;5130299;27;20417;-84
2023/01/18 11:32:24;;;;;;;14.18;2.45;;;;;;;2.29;100.00;98830.50;5105704;28;20434;-85
2023/01/18 11:34:58;;;;;;;12.27;2.83;;;;;;;1.94;100.00;98800.69;5136714;27;20051;-85
2023/01/18 11:37:35;;;;;;;17.98;4.40;;;;;;;2.24;100.00;98848.72;5138563;27;20613;-84
2023/01/18 11:40:27;;;;;;;20.10;3.20;;;;;;;2.48;100.00;98838.47;5110782;28;20048;-85
2023/01/18 11:43:08;;;;;;;8.30;2.40;;;;;;;2.36;100.00;98794.97;5127274;27;20054;-85
2023/01/18 11:46:02;;;;;;;16.58;2.85;;;;;;;2.75;100.00;98826.28;5125231;27;20063;-86
2023/01/18 11:48:37;;;;;;;14.15;3.45;;;;;;;2.25;100.00;98764.38;5112249;27;20056;-83
2023/01/18 11:51:44;;;;;;;13.07;2.63;;;;;;;2.90;100.00;98839.53;5104138;28;20040;-83
2023/01/18 11:54:45;;;;;;;13.88;3.38;;;;;;;2.55;100.00;98811.50;5044367;28;20513;-83
2023/01/18 11:57:13;;;;;;;19.20;4.13;;;;;;;2.63;100.00;98853.41;5106133;27;20053;-85
2023/01/18 11:59:44;;;;;;;19.55;2.90;;;;;;;2.62;100.00;98806.94;5121249;27;20058;-85
2023/01/18 12:02:23;;;;;;;15.98;3.97;;;;;;;2.80;100.00;98851.97;5114260;28;20040;-85
2023/01/18 12:05:09;;;;;;;12.73;3.58;;;;;;;2.90;100.00;98855.91;5109205;28;20093;-84
2023/01/18 12:07:36;;;;;;;14.85;3.03;;;;;;;2.91;100.00;98859.34;5121365;27;20047;-84
2023/01/18 12:10:09;;;;;;;12.95;3.28;;;;;;;2.99;100.00;98844.38;5120170;27;20055;-84
2023/01/18 12:12:36;;;;;;;;;;;;;;;2.89;100.00;98850.81;5125691;27;20051;-85
2023/01/18 12:15:02;;;;;;;14.77;3.75;;;;;;;2.87;100.00;98853.44;5105286;28;19919;-85
2023/01/18 12:18:06;;;;;;;24.42;3.90;;;;;;;2.84;100.00;98836.28;5113559;27;20051;-85
2023/01/18 12:20:42;;;;;;;20.17;4.28;;;;;;;3.05;100.00;98857.09;5118216;27;20532;-84
2023/01/18 12:23:12;;;;;;;26.50;4.22;;;;;;;2.91;100.00;98859.34;5118561;27;20051;-84
2023/01/18 12:25:51;;;;;;;23.38;4.18;;;;;;;2.87;100.00;98862.91;5137883;27;20061;-84
2023/01/18 12:29:13;;;;;;;19.92;4.60;;;;;;;3.00;100.00;98854.66;5108993;28;20048;-85
2023/01/18 12:32:07;;;;;;;18.35;5.00;;;;;;;3.08;100.00;98859.56;5099935;28;20495;-85